createdAt,value
2022-11-09T00:00:49.171Z,9.09
2022-11-09T00:03:20.726Z,9.07
2022-11-09T00:05:58.620Z,9.06
2022-11-09T00:08:26.507Z,9.05
2022-11-09T00:10:53.321Z,9.05
2022-11-09T00:13:22.108Z,9.06
2022-11-09T00:15:49.183Z,9.06
2022-11-09T00:18:15.752Z,9.06
2022-11-09T00:20:47.763Z,9.06
2022-11-09T00:23:16.489Z,9.04
2022-11-09T00:25:43.482Z,9.02
2022-11-09T00:28:10.157Z,9.02
2022-11-09T00:30:40.802Z,9.00
2022-11-09T00:33:08.913Z,9.01
2022-11-09T00:35:38.270Z,9.00
2022-11-09T00:38:04.968Z,9.00
2022-11-09T00:40:31.691Z,9.00
2022-11-09T00:42:58.356Z,8.99
2022-11-09T00:45:24.998Z,9.00
2022-11-09T00:47:51.591Z,9.01
2022-11-09T00:50:18.310Z,9.01
2022-11-09T00:52:44.903Z,9.04
2022-11-09T00:55:11.549Z,9.04
2022-11-09T00:57:38.160Z,9.04
2022-11-09T01:00:05.432Z,9.05
2022-11-09T01:02:32.128Z,9.05
2022-11-09T01:05:00.099Z,9.06
2022-11-09T01:07:26.797Z,9.04
2022-11-09T01:09:53.388Z,9.02
2022-11-09T01:12:20.011Z,9.01
2022-11-09T01:14:46.678Z,9.00
2022-11-09T01:17:13.301Z,8.99
2022-11-09T01:19:39.945Z,8.98
2022-11-09T01:22:06.551Z,8.96
2022-11-09T01:24:33.198Z,8.94
2022-11-09T01:26:59.836Z,8.92
2022-11-09T01:29:26.478Z,8.90
2022-11-09T01:31:55.432Z,8.87
2022-11-09T01:34:22.298Z,8.85
2022-11-09T01:36:52.677Z,8.83
2022-11-09T01:39:20.276Z,8.81
2022-11-09T01:41:47.906Z,8.79
2022-11-09T01:44:15.875Z,8.79
2022-11-09T01:46:59.795Z,8.77
2022-11-09T01:49:45.480Z,8.76
2022-11-09T01:52:12.042Z,8.74
2022-11-09T01:54:49.167Z,8.72
2022-11-09T01:57:25.669Z,8.68
2022-11-09T01:59:58.251Z,8.66
2022-11-09T02:02:25.006Z,8.67
2022-11-09T02:05:06.049Z,8.64
2022-11-09T02:07:33.825Z,8.62
2022-11-09T02:10:39.558Z,8.60
2022-11-09T02:13:08.441Z,8.58
2022-11-09T02:15:40.158Z,8.57
2022-11-09T02:18:09.684Z,8.56
2022-11-09T02:20:50.829Z,8.54
2022-11-09T02:23:18.756Z,8.52
2022-11-09T02:25:51.490Z,8.51
2022-11-09T02:28:18.746Z,8.51
2022-11-09T02:30:50.412Z,8.49
2022-11-09T02:33:17.307Z,8.50
2022-11-09T02:35:44.330Z,8.51
2022-11-09T02:38:12.264Z,8.51
2022-11-09T02:40:42.652Z,8.50
2022-11-09T02:43:10.797Z,8.49
2022-11-09T02:45:37.653Z,8.47
2022-11-09T02:48:04.714Z,8.45
2022-11-09T02:50:31.341Z,8.46
2022-11-09T02:52:58.021Z,8.46
2022-11-09T02:55:24.652Z,8.44
2022-11-09T02:57:51.285Z,8.44
2022-11-09T03:02:53.741Z,8.44
2022-11-09T03:05:20.402Z,8.44
2022-11-09T03:07:47.073Z,8.43
2022-11-09T03:10:13.710Z,8.42
2022-11-09T03:12:40.340Z,8.41
2022-11-09T03:15:08.787Z,8.43
2022-11-09T03:17:36.114Z,8.41
2022-11-09T03:20:02.858Z,8.42
2022-11-09T03:22:29.512Z,8.41
2022-11-09T03:24:56.215Z,8.41
2022-11-09T03:27:22.824Z,8.41
2022-11-09T03:29:49.532Z,8.42
2022-11-09T03:32:16.141Z,8.41
2022-11-09T03:34:42.815Z,8.42
2022-11-09T03:37:09.541Z,8.41
2022-11-09T03:39:36.177Z,8.41
2022-11-09T03:42:02.862Z,8.40
2022-11-09T03:44:29.486Z,8.39
2022-11-09T03:46:56.154Z,8.39
2022-11-09T03:49:23.923Z,8.36
2022-11-09T03:51:51.250Z,8.37
2022-11-09T03:54:17.930Z,8.35
2022-11-09T03:56:44.633Z,8.36
2022-11-09T03:59:11.378Z,8.33
2022-11-09T04:01:38.141Z,8.33
2022-11-09T04:04:04.999Z,8.32
2022-11-09T04:06:31.739Z,8.29
2022-11-09T04:08:58.385Z,8.28
2022-11-09T04:11:24.972Z,8.27
2022-11-09T04:13:51.603Z,8.26
2022-11-09T04:16:18.237Z,8.26
2022-11-09T04:18:44.878Z,8.25
2022-11-09T04:21:11.475Z,8.25
2022-11-09T04:23:38.233Z,8.24
2022-11-09T04:26:04.949Z,8.23
2022-11-09T04:28:31.592Z,8.21
2022-11-09T04:31:01.918Z,8.22
2022-11-09T04:33:28.762Z,8.19
2022-11-09T04:36:04.878Z,8.17
2022-11-09T04:38:32.216Z,8.16
2022-11-09T04:41:03.568Z,8.15
2022-11-09T04:43:30.217Z,8.13
2022-11-09T04:46:00.452Z,8.13
2022-11-09T04:48:27.093Z,8.13
2022-11-09T04:51:02.781Z,8.11
2022-11-09T04:53:29.904Z,8.11
2022-11-09T04:55:57.522Z,8.12
2022-11-09T04:58:25.261Z,8.12
2022-11-09T05:00:52.685Z,8.13
2022-11-09T05:03:20.102Z,8.14
2022-11-09T05:05:48.561Z,8.16
2022-11-09T05:08:15.486Z,8.18
2022-11-09T05:10:42.125Z,8.21
2022-11-09T05:13:11.473Z,8.22
2022-11-09T05:15:38.357Z,8.22
2022-11-09T05:18:05.907Z,8.24
2022-11-09T05:20:33.021Z,8.23
2022-11-09T05:23:19.276Z,8.25
2022-11-09T05:25:47.129Z,8.28
2022-11-09T05:28:14.427Z,8.32
2022-11-09T05:30:41.250Z,8.32
2022-11-09T05:33:07.910Z,8.31
2022-11-09T05:35:34.521Z,8.27
2022-11-09T05:38:01.140Z,8.25
2022-11-09T05:40:27.816Z,8.23
2022-11-09T05:42:56.112Z,8.21
2022-11-09T05:48:09.969Z,8.17
2022-11-09T05:50:37.381Z,8.15
2022-11-09T05:53:03.999Z,8.14
2022-11-09T05:55:30.790Z,8.13
2022-11-09T05:57:57.404Z,8.12
2022-11-09T06:00:24.144Z,8.09
2022-11-09T06:02:50.975Z,8.10
2022-11-09T06:05:18.374Z,8.11
2022-11-09T06:07:44.981Z,8.12
2022-11-09T06:10:12.046Z,8.12
2022-11-09T06:12:38.643Z,8.10
2022-11-09T06:15:06.118Z,8.10
2022-11-09T06:17:32.879Z,8.10
2022-11-09T06:19:59.463Z,8.09
2022-11-09T06:22:26.068Z,8.09
2022-11-09T06:24:52.672Z,8.08
2022-11-09T06:27:19.337Z,8.07
2022-11-09T06:29:45.996Z,8.06
2022-11-09T06:32:12.600Z,8.06
2022-11-09T06:34:39.213Z,8.07
2022-11-09T06:37:05.869Z,8.07
2022-11-09T06:39:32.496Z,8.07
2022-11-09T06:41:59.072Z,8.06
2022-11-09T06:44:25.689Z,8.10
2022-11-09T06:46:52.272Z,8.11
2022-11-09T06:49:18.880Z,8.13
2022-11-09T06:51:45.502Z,8.17
2022-11-09T06:54:12.176Z,8.18
2022-11-09T06:56:38.772Z,8.20
2022-11-09T06:59:05.485Z,8.19
2022-11-09T07:01:32.188Z,8.19
2022-11-09T07:03:58.806Z,8.18
2022-11-09T07:06:25.494Z,8.18
2022-11-09T07:08:56.075Z,8.17
2022-11-09T07:11:22.753Z,8.17
2022-11-09T07:13:53.459Z,8.15
2022-11-09T07:16:22.955Z,8.13
2022-11-09T07:18:49.595Z,8.11
2022-11-09T07:21:16.266Z,8.11
2022-11-09T07:23:43.530Z,8.12
2022-11-09T07:26:10.213Z,8.11
2022-11-09T07:28:36.843Z,8.13
2022-11-09T07:31:03.746Z,8.12
2022-11-09T07:33:33.347Z,8.11
2022-11-09T07:36:01.663Z,8.12
2022-11-09T07:38:29.355Z,8.14
2022-11-09T07:41:02.865Z,8.14
2022-11-09T07:43:29.943Z,8.16
2022-11-09T07:45:56.761Z,8.17
2022-11-09T07:48:23.611Z,8.18
2022-11-09T07:50:50.506Z,8.17
2022-11-09T07:53:17.622Z,8.19
2022-11-09T07:55:44.612Z,8.20
2022-11-09T07:58:13.453Z,8.23
2022-11-09T08:00:41.870Z,8.24
2022-11-09T08:03:09.324Z,8.26
2022-11-09T08:05:36.335Z,8.29
2022-11-09T08:08:06.275Z,8.31
2022-11-09T08:10:34.276Z,8.32
2022-11-09T08:13:03.589Z,8.30
2022-11-09T08:15:31.154Z,8.31
2022-11-09T08:18:02.779Z,8.29
2022-11-09T08:20:30.344Z,8.27
2022-11-09T08:23:02.323Z,8.26
2022-11-09T08:25:30.257Z,8.25
2022-11-09T08:27:57.447Z,8.25
2022-11-09T08:30:34.056Z,8.26
2022-11-09T08:33:02.709Z,8.29
2022-11-09T08:35:29.885Z,8.34
2022-11-09T08:37:59.874Z,8.42
2022-11-09T08:40:26.693Z,8.49
2022-11-09T08:42:53.831Z,8.44
2022-11-09T08:45:21.045Z,8.36
2022-11-09T08:47:48.247Z,8.27
2022-11-09T08:50:16.152Z,8.22
2022-11-09T08:52:43.136Z,8.17
2022-11-09T08:55:09.892Z,8.14
2022-11-09T08:57:36.565Z,8.16
2022-11-09T09:00:04.699Z,8.19
2022-11-09T09:02:31.304Z,8.21
2022-11-09T09:04:58.006Z,8.20
2022-11-09T09:07:24.778Z,8.19
2022-11-09T09:09:51.467Z,8.19
2022-11-09T09:12:18.910Z,8.20
2022-11-09T09:14:45.546Z,8.19
2022-11-09T09:17:12.228Z,8.20
2022-11-09T09:19:38.820Z,8.21
2022-11-09T09:22:05.968Z,8.21
2022-11-09T09:24:32.767Z,8.21
2022-11-09T09:26:59.475Z,8.18
2022-11-09T09:29:26.922Z,8.14
2022-11-09T09:31:53.573Z,8.10
2022-11-09T09:34:20.247Z,8.06
2022-11-09T09:36:48.450Z,8.03
2022-11-09T09:39:15.738Z,7.95
2022-11-09T09:42:05.432Z,7.93
2022-11-09T09:45:05.736Z,7.91
2022-11-09T09:47:41.678Z,7.90
2022-11-09T09:50:20.784Z,7.94
2022-11-09T09:53:32.767Z,8.09
2022-11-09T09:56:28.565Z,8.17
2022-11-09T09:59:05.257Z,8.23
2022-11-09T10:01:43.803Z,8.27
2022-11-09T10:04:37.396Z,8.34
2022-11-09T10:07:19.356Z,8.38
2022-11-09T10:10:16.939Z,8.38
2022-11-09T10:12:59.213Z,8.37
2022-11-09T10:15:29.719Z,8.36
2022-11-09T10:18:28.375Z,8.40
2022-11-09T10:21:09.952Z,8.43
2022-11-09T10:23:52.678Z,8.48
2022-11-09T10:26:27.528Z,8.51
2022-11-09T10:29:16.051Z,8.54
2022-11-09T10:31:46.657Z,8.62
2022-11-09T10:34:24.113Z,8.64
2022-11-09T10:37:17.131Z,8.70
2022-11-09T10:39:52.752Z,8.73
2022-11-09T10:42:19.368Z,8.77
2022-11-09T10:44:45.982Z,8.81
2022-11-09T10:47:15.034Z,8.85
2022-11-09T10:49:41.676Z,8.89
2022-11-09T10:52:45.921Z,8.92
2022-11-09T10:55:23.385Z,8.95
2022-11-09T10:58:02.467Z,8.99
2022-11-09T11:00:29.821Z,9.05
2022-11-09T11:02:56.916Z,9.08
2022-11-09T11:05:29.226Z,9.14
2022-11-09T11:07:56.181Z,9.17
2022-11-09T11:10:23.400Z,9.21
2022-11-09T11:13:19.842Z,9.25
2022-11-09T11:15:47.360Z,9.31
2022-11-09T11:18:24.126Z,9.33
2022-11-09T11:21:19.860Z,9.38
2022-11-09T11:24:12.638Z,9.42
2022-11-09T11:26:48.192Z,9.46
2022-11-09T11:29:23.580Z,9.51
2022-11-09T11:31:50.295Z,9.56
2022-11-09T11:34:38.386Z,9.62
2022-11-09T11:37:03.637Z,9.67
2022-11-09T11:40:06.333Z,9.72
2022-11-09T11:42:51.063Z,9.76
2022-11-09T11:45:41.690Z,9.82
2022-11-09T11:48:39.641Z,9.89
2022-11-09T11:51:12.430Z,9.95
2022-11-09T11:54:06.436Z,10.01
2022-11-09T11:56:46.702Z,10.12
2022-11-09T11:59:32.160Z,10.18
2022-11-09T12:02:36.386Z,10.21
2022-11-09T12:05:30.735Z,10.28
2022-11-09T12:08:33.310Z,10.37
2022-11-09T12:11:24.771Z,10.50
2022-11-09T12:14:20.680Z,10.65
2022-11-09T12:17:03.600Z,10.81
2022-11-09T12:19:55.393Z,10.93
2022-11-09T12:22:25.059Z,11.05
2022-11-09T12:25:18.476Z,11.20
2022-11-09T12:28:03.438Z,11.29
2022-11-09T12:30:45.757Z,11.35
2022-11-09T12:33:23.966Z,11.44
2022-11-09T12:36:15.569Z,11.56
2022-11-09T12:39:08.369Z,11.66
2022-11-09T12:41:37.360Z,11.80
2022-11-09T12:44:16.929Z,11.91
2022-11-09T12:46:50.251Z,11.97
2022-11-09T12:49:30.278Z,12.00
2022-11-09T12:51:59.094Z,12.07
2022-11-09T12:54:26.729Z,12.10
2022-11-09T12:57:06.678Z,12.04
2022-11-09T12:59:54.128Z,11.95
2022-11-09T13:02:32.639Z,11.97
2022-11-09T13:05:06.008Z,11.93
2022-11-09T13:07:50.690Z,11.92
2022-11-09T13:10:31.541Z,11.93
2022-11-09T13:13:05.968Z,11.86
2022-11-09T13:15:34.646Z,11.72
2022-11-09T13:18:06.083Z,11.66
2022-11-09T13:23:47.742Z,11.70
2022-11-09T13:26:32.578Z,11.76
2022-11-09T13:29:15.902Z,11.79
2022-11-09T13:32:13.914Z,11.83
2022-11-09T13:34:57.124Z,11.85
2022-11-09T13:37:41.783Z,11.89
2022-11-09T13:40:33.077Z,11.91
2022-11-09T13:43:04.412Z,11.94
2022-11-09T13:45:46.426Z,11.97
2022-11-09T13:48:38.098Z,11.93
2022-11-09T13:51:15.679Z,11.89
2022-11-09T13:53:50.968Z,11.87
2022-11-09T13:56:29.517Z,11.86
2022-11-09T13:59:04.362Z,11.87
2022-11-09T14:01:58.041Z,11.85
2022-11-09T14:04:37.824Z,11.84
2022-11-09T14:07:34.109Z,11.83
2022-11-09T14:10:02.035Z,11.84
2022-11-09T14:13:06.711Z,11.99
2022-11-09T14:16:09.048Z,12.09
2022-11-09T14:18:44.877Z,12.02
2022-11-09T14:21:34.857Z,11.93
2022-11-09T14:24:22.662Z,11.84
2022-11-09T14:27:02.491Z,11.78
2022-11-09T14:29:35.794Z,11.71
2022-11-09T14:32:28.757Z,11.61
2022-11-09T14:35:25.554Z,11.55
2022-11-09T14:37:54.407Z,11.50
2022-11-09T14:40:27.859Z,11.47
2022-11-09T14:42:56.486Z,11.48
2022-11-09T14:45:23.969Z,11.49
2022-11-09T14:47:54.236Z,11.52
2022-11-09T14:50:23.946Z,11.58
2022-11-09T14:52:52.877Z,11.65
2022-11-09T14:55:21.308Z,11.71
2022-11-09T14:57:51.568Z,11.77
2022-11-09T15:00:34.590Z,11.78
2022-11-09T15:03:30.451Z,11.77
2022-11-09T15:06:10.973Z,11.77
2022-11-09T15:08:40.455Z,11.74
2022-11-09T15:11:07.813Z,11.71
2022-11-09T15:13:40.179Z,11.67
2022-11-09T15:16:07.822Z,11.65
2022-11-09T15:18:44.752Z,11.62
2022-11-09T15:21:26.487Z,11.61
2022-11-09T15:24:18.053Z,11.59
2022-11-09T15:26:51.225Z,11.56
2022-11-09T15:29:29.064Z,11.54
2022-11-09T15:32:00.330Z,11.50
2022-11-09T15:34:35.946Z,11.49
2022-11-09T15:37:02.710Z,11.47
2022-11-09T15:39:29.580Z,11.46
2022-11-09T15:41:57.789Z,11.46
2022-11-09T15:44:24.519Z,11.43
2022-11-09T15:46:53.081Z,11.41
2022-11-09T15:49:28.833Z,11.37
2022-11-09T15:51:56.113Z,11.34
2022-11-09T15:54:24.101Z,11.31
2022-11-09T15:56:51.489Z,11.26
2022-11-09T15:59:22.798Z,11.23
2022-11-09T16:01:49.677Z,11.21
2022-11-09T16:04:16.309Z,11.19
2022-11-09T16:06:46.545Z,11.18
2022-11-09T16:09:14.161Z,11.17
2022-11-09T16:11:40.816Z,11.13
2022-11-09T16:14:07.691Z,11.13
2022-11-09T16:16:34.455Z,11.11
2022-11-09T16:19:01.074Z,11.09
2022-11-09T16:21:27.688Z,11.08
2022-11-09T16:23:58.471Z,11.05
2022-11-09T16:26:25.901Z,11.05
2022-11-09T16:28:55.103Z,11.04
2022-11-09T16:31:41.069Z,11.05
2022-11-09T16:34:08.494Z,11.04
2022-11-09T16:36:38.298Z,11.04
2022-11-09T16:39:09.441Z,11.01
2022-11-09T16:41:40.768Z,11.01
2022-11-09T16:44:07.630Z,11.00
2022-11-09T16:46:35.145Z,11.00
2022-11-09T16:49:02.657Z,11.02
2022-11-09T16:51:29.991Z,11.02
2022-11-09T16:53:56.604Z,10.99
2022-11-09T16:56:23.244Z,10.98
2022-11-09T16:58:50.026Z,10.95
2022-11-09T17:01:22.058Z,10.92
2022-11-09T17:03:49.835Z,10.90
2022-11-09T17:06:16.500Z,10.86
2022-11-09T17:08:43.177Z,10.84
2022-11-09T17:11:11.620Z,10.83
2022-11-09T17:13:39.327Z,10.81
2022-11-09T17:16:09.285Z,10.80
2022-11-09T17:18:37.785Z,10.78
2022-11-09T17:21:14.910Z,10.80
2022-11-09T17:23:42.772Z,10.80
2022-11-09T17:26:09.977Z,10.79
2022-11-09T17:28:42.501Z,10.77
2022-11-09T17:31:15.405Z,10.75
2022-11-09T17:33:42.236Z,10.73
2022-11-09T17:36:25.924Z,10.69
2022-11-09T17:39:05.224Z,10.65
2022-11-09T17:41:31.851Z,10.65
2022-11-09T17:44:01.535Z,10.65
2022-11-09T17:46:28.197Z,10.68
2022-11-09T17:48:54.936Z,10.70
2022-11-09T17:51:21.653Z,10.73
2022-11-09T17:53:48.361Z,10.76
2022-11-09T17:56:14.968Z,10.78
2022-11-09T17:58:43.392Z,10.79
2022-11-09T18:01:15.466Z,10.79
2022-11-09T18:03:42.522Z,10.81
2022-11-09T18:06:11.871Z,10.82
2022-11-09T18:08:38.512Z,10.82
2022-11-09T18:11:05.306Z,10.84
2022-11-09T18:13:32.007Z,10.87
2022-11-09T18:15:58.885Z,10.87
2022-11-09T18:18:25.569Z,10.88
2022-11-09T18:20:52.269Z,10.91
2022-11-09T18:23:18.882Z,10.90
2022-11-09T18:25:55.963Z,10.91
2022-11-09T18:28:22.886Z,10.91
2022-11-09T18:30:49.733Z,10.94
2022-11-09T18:33:16.351Z,10.94
2022-11-09T18:35:42.939Z,10.97
2022-11-09T18:38:13.092Z,10.99
2022-11-09T18:40:39.963Z,10.99
2022-11-09T18:43:06.551Z,11.02
2022-11-09T18:45:34.707Z,11.05
2022-11-09T18:48:01.442Z,11.06
2022-11-09T18:50:28.469Z,11.08
2022-11-09T18:52:55.130Z,11.09
2022-11-09T18:55:21.783Z,11.11
2022-11-09T18:57:48.458Z,11.11
2022-11-09T19:00:15.560Z,11.12
2022-11-09T19:02:42.464Z,11.13
2022-11-09T19:05:09.455Z,11.16
2022-11-09T19:07:36.125Z,11.19
2022-11-09T19:10:03.090Z,11.20
2022-11-09T19:12:30.340Z,11.21
2022-11-09T19:14:56.939Z,11.23
2022-11-09T19:17:24.031Z,11.24
2022-11-09T19:19:50.664Z,11.23
2022-11-09T19:22:19.123Z,11.26
2022-11-09T19:24:46.473Z,11.27
2022-11-09T19:27:13.513Z,11.27
2022-11-09T19:29:40.191Z,11.27
2022-11-09T19:32:06.966Z,11.27
2022-11-09T19:34:33.606Z,11.29
2022-11-09T19:37:00.432Z,11.29
2022-11-09T19:39:32.578Z,11.28
2022-11-09T19:42:00.500Z,11.27
2022-11-09T19:44:27.095Z,11.27
2022-11-09T19:46:53.857Z,11.28
2022-11-09T19:49:20.620Z,11.28
2022-11-09T19:51:47.210Z,11.28
2022-11-09T19:54:14.457Z,11.27
2022-11-09T19:56:41.153Z,11.22
2022-11-09T19:59:12.849Z,11.21
2022-11-09T20:01:39.586Z,11.22
2022-11-09T20:04:10.090Z,11.22
2022-11-09T20:06:38.884Z,11.26
2022-11-09T20:09:06.070Z,11.29
2022-11-09T20:11:51.651Z,11.30
2022-11-09T20:14:18.602Z,11.32
2022-11-09T20:16:46.925Z,11.36
2022-11-09T20:19:14.237Z,11.39
2022-11-09T20:21:41.332Z,11.39
2022-11-09T20:24:08.765Z,11.40
2022-11-09T20:26:35.543Z,11.41
2022-11-09T20:29:02.224Z,11.41
2022-11-09T20:31:29.707Z,11.44
2022-11-09T20:33:56.854Z,11.44
2022-11-09T20:36:23.841Z,11.44
2022-11-09T20:38:50.491Z,11.42
2022-11-09T20:41:20.520Z,11.42
2022-11-09T20:43:49.634Z,11.42
2022-11-09T20:46:19.698Z,11.41
2022-11-09T20:48:54.015Z,11.42
2022-11-09T20:51:23.834Z,11.42
2022-11-09T20:53:51.086Z,11.43
2022-11-09T20:56:19.333Z,11.42
2022-11-09T20:58:46.141Z,11.42
2022-11-09T21:01:12.848Z,11.41
2022-11-09T21:03:39.904Z,11.41
2022-11-09T21:06:07.669Z,11.40
2022-11-09T21:08:34.741Z,11.39
2022-11-09T21:11:03.119Z,11.38
2022-11-09T21:13:30.085Z,11.39
2022-11-09T21:16:04.486Z,11.40
2022-11-09T21:18:31.217Z,11.39
2022-11-09T21:21:04.894Z,11.40
2022-11-09T21:23:49.899Z,11.41
2022-11-09T21:26:35.464Z,11.43
2022-11-09T21:29:20.471Z,11.48
2022-11-09T21:31:47.104Z,11.51
2022-11-09T21:34:13.801Z,11.52
2022-11-09T21:36:43.087Z,11.54
2022-11-09T21:39:10.904Z,11.54
2022-11-09T21:41:38.701Z,11.53
2022-11-09T21:44:11.664Z,11.52
2022-11-09T21:46:40.112Z,11.50
2022-11-09T21:49:08.200Z,11.50
2022-11-09T21:51:36.861Z,11.48
2022-11-09T21:54:04.098Z,11.47
2022-11-09T21:56:30.744Z,11.47
2022-11-09T21:58:57.470Z,11.50
2022-11-09T22:01:24.363Z,11.52
2022-11-09T22:03:51.235Z,11.56
2022-11-09T22:06:18.274Z,11.59
2022-11-09T22:08:46.053Z,11.59
2022-11-09T22:11:18.068Z,11.58
2022-11-09T22:14:03.228Z,11.60
2022-11-09T22:16:33.906Z,11.60
2022-11-09T22:19:22.376Z,11.61
2022-11-09T22:21:49.030Z,11.61
2022-11-09T22:24:15.750Z,11.59
2022-11-09T22:26:42.388Z,11.57
2022-11-09T22:29:09.107Z,11.56
2022-11-09T22:31:35.844Z,11.57
2022-11-09T22:34:02.633Z,11.58
2022-11-09T22:36:29.296Z,11.59
2022-11-09T22:38:56.221Z,11.60
2022-11-09T22:41:24.682Z,11.63
2022-11-09T22:43:52.635Z,11.68
2022-11-09T22:46:19.425Z,11.72
2022-11-09T22:48:46.237Z,11.79
2022-11-09T22:51:14.736Z,11.87
2022-11-09T22:53:41.916Z,11.91
2022-11-09T22:56:10.701Z,11.95
2022-11-09T22:58:37.321Z,11.98
2022-11-09T23:01:16.307Z,12.01
2022-11-09T23:03:43.488Z,12.02
2022-11-09T23:06:19.408Z,12.05
2022-11-09T23:08:46.732Z,12.09
2022-11-09T23:11:16.309Z,12.10
2022-11-09T23:13:43.701Z,12.08
2022-11-09T23:16:12.038Z,12.07
2022-11-09T23:18:54.399Z,12.03
2022-11-09T23:21:21.877Z,11.96
2022-11-09T23:23:50.934Z,11.91
2022-11-09T23:26:17.681Z,11.91
2022-11-09T23:28:44.394Z,11.94
2022-11-09T23:31:15.137Z,11.97
2022-11-09T23:33:42.011Z,12.00
2022-11-09T23:36:09.790Z,12.06
2022-11-09T23:38:38.265Z,12.10
2022-11-09T23:41:10.648Z,12.12
2022-11-09T23:43:37.411Z,12.13
2022-11-09T23:46:06.350Z,12.14
2022-11-09T23:48:33.348Z,12.16
2022-11-09T23:51:01.263Z,12.17
2022-11-09T23:53:29.547Z,12.19
2022-11-09T23:56:04.677Z,12.20
2022-11-09T23:58:31.496Z,12.21
